JST194 NZQN-YBCG
Flight info
| Callsign | JST194 |
|---|---|
| Flight time | 3h 11m |
| Altitude | 36000 |
| Route | LIBLA P880 LAMSI |
| Aircraft | A20N/M-SADE3FGHIJ3J4J5M1RWYZ/LB1D1 |
Departure
| Time | 2026-05-09 01:37 |
|---|---|
| Airport | Queenstown Airport (NZQN) |
Arrival
| Time | 2026-05-09 04:48 |
|---|---|
| Airport | Gold Coast Airport (YBCG) |
| Time | Latitude | Longitude | Altitude | Speed | Heading |
|---|---|---|---|---|---|
| 2026-05-09 01:16 | -45.02161 | 168.74103 | -551 ft | 0 kts | 251° |
| 2026-05-09 01:27 | -45.02158 | 168.74119 | 1165 ft | 3 kts | 261° |
| 2026-05-09 01:28 | -45.02157 | 168.74147 | 1164 ft | 3 kts | 285° |
| 2026-05-09 01:28 | -45.02164 | 168.74171 | 1165 ft | 3 kts | 311° |
| 2026-05-09 01:28 | -45.02178 | 168.74187 | 1164 ft | 2 kts | 338° |
| 2026-05-09 01:28 | -45.02181 | 168.74189 | 1165 ft | 1 kts | 341° |
| 2026-05-09 01:31 | -45.02178 | 168.74188 | 1164 ft | 3 kts | 341° |
| 2026-05-09 01:31 | -45.02145 | 168.74172 | 1166 ft | 5 kts | 341° |
| 2026-05-09 01:32 | -45.02120 | 168.74143 | 1165 ft | 5 kts | 305° |
| 2026-05-09 01:32 | -45.02104 | 168.74106 | 1165 ft | 4 kts | 299° |
| 2026-05-09 01:32 | -45.02084 | 168.74065 | 1166 ft | 6 kts | 318° |
| 2026-05-09 01:32 | -45.02046 | 168.74059 | 1167 ft | 5 kts | 12° |
| 2026-05-09 01:33 | -45.02009 | 168.74078 | 1165 ft | 8 kts | 23° |
| 2026-05-09 01:33 | -45.01951 | 168.74113 | 1167 ft | 10 kts | 23° |
| 2026-05-09 01:33 | -45.01905 | 168.74188 | 1170 ft | 15 kts | 72° |
| 2026-05-09 01:33 | -45.01876 | 168.74367 | 1171 ft | 20 kts | 76° |
| 2026-05-09 01:34 | -45.01846 | 168.74560 | 1170 ft | 20 kts | 77° |
| 2026-05-09 01:34 | -45.01814 | 168.74751 | 1170 ft | 20 kts | 76° |
| 2026-05-09 01:34 | -45.01786 | 168.74938 | 1169 ft | 19 kts | 77° |
| 2026-05-09 01:34 | -45.01758 | 168.75115 | 1169 ft | 19 kts | 77° |
| 2026-05-09 01:35 | -45.01725 | 168.75321 | 1170 ft | 22 kts | 77° |
| 2026-05-09 01:35 | -45.01694 | 168.75526 | 1169 ft | 21 kts | 78° |
| 2026-05-09 01:35 | -45.01664 | 168.75716 | 1169 ft | 16 kts | 76° |
| 2026-05-09 01:35 | -45.01638 | 168.75808 | 1167 ft | 6 kts | 94° |
| 2026-05-09 01:36 | -45.01647 | 168.75814 | 1169 ft | 2 kts | 172° |
| 2026-05-09 01:36 | -45.01654 | 168.75795 | 1169 ft | 1 kts | 269° |
| 2026-05-09 01:36 | -45.01654 | 168.75782 | 1169 ft | 3 kts | 264° |
| 2026-05-09 01:36 | -45.01686 | 168.75574 | 1172 ft | 50 kts | 258° |
| 2026-05-09 01:37 | -45.01758 | 168.75115 | 1169 ft | 93 kts | 257° |
| 2026-05-09 01:37 | -45.01936 | 168.73969 | 1289 ft | 135 kts | 257° |
| 2026-05-09 01:37 | -45.02142 | 168.72704 | 1946 ft | 129 kts | 258° |
| 2026-05-09 01:37 | -45.02359 | 168.71484 | 2589 ft | 126 kts | 254° |
| 2026-05-09 01:38 | -45.02701 | 168.70288 | 3095 ft | 145 kts | 242° |
| 2026-05-09 01:38 | -45.03379 | 168.69023 | 3509 ft | 177 kts | 227° |
| 2026-05-09 01:38 | -45.04455 | 168.68011 | 4103 ft | 196 kts | 208° |
| 2026-05-09 01:38 | -45.05823 | 168.67592 | 4814 ft | 207 kts | 186° |
| 2026-05-09 01:39 | -45.07259 | 168.67946 | 5604 ft | 214 kts | 163° |
| 2026-05-09 01:39 | -45.08527 | 168.69088 | 6327 ft | 221 kts | 140° |
| 2026-05-09 01:39 | -45.09586 | 168.70699 | 7006 ft | 228 kts | 138° |
| 2026-05-09 01:39 | -45.10753 | 168.72366 | 7422 ft | 246 kts | 147° |
| 2026-05-09 01:40 | -45.12185 | 168.73685 | 8158 ft | 244 kts | 164° |
| 2026-05-09 01:40 | -45.13750 | 168.74383 | 9074 ft | 222 kts | 182° |
| 2026-05-09 01:40 | -45.15092 | 168.74512 | 10512 ft | 182 kts | 194° |
| 2026-05-09 01:40 | -45.16375 | 168.74381 | 11112 ft | 189 kts | 195° |
| 2026-05-09 01:41 | -45.17737 | 168.74233 | 11559 ft | 205 kts | 194° |
| 2026-05-09 01:41 | -45.19249 | 168.74084 | 11862 ft | 230 kts | 193° |
| 2026-05-09 01:41 | -45.20930 | 168.73872 | 12172 ft | 253 kts | 197° |
| 2026-05-09 01:41 | -45.22699 | 168.73271 | 12486 ft | 270 kts | 206° |
| 2026-05-09 01:42 | -45.24428 | 168.72046 | 12805 ft | 287 kts | 218° |
| 2026-05-09 01:42 | -45.25952 | 168.70155 | 13262 ft | 296 kts | 232° |
| 2026-05-09 01:42 | -45.27101 | 168.67713 | 13893 ft | 301 kts | 244° |
| 2026-05-09 01:42 | -45.27779 | 168.64872 | 14680 ft | 306 kts | 258° |
| 2026-05-09 01:43 | -45.27907 | 168.61837 | 15485 ft | 312 kts | 271° |
| 2026-05-09 01:43 | -45.27447 | 168.58789 | 16231 ft | 322 kts | 285° |
| 2026-05-09 01:43 | -45.26362 | 168.55942 | 16970 ft | 336 kts | 301° |
| 2026-05-09 01:43 | -45.24677 | 168.53550 | 17710 ft | 351 kts | 316° |
| 2026-05-09 01:44 | -45.22634 | 168.51575 | 18287 ft | 359 kts | 321° |
| 2026-05-09 01:44 | -45.20503 | 168.49699 | 18999 ft | 362 kts | 322° |
| 2026-05-09 01:44 | -45.18373 | 168.47836 | 19663 ft | 366 kts | 321° |
| 2026-05-09 01:44 | -45.16200 | 168.45920 | 20283 ft | 370 kts | 321° |
| 2026-05-09 01:45 | -45.14007 | 168.43976 | 20829 ft | 374 kts | 321° |
| 2026-05-09 01:45 | -45.11808 | 168.41992 | 21507 ft | 375 kts | 321° |
| 2026-05-09 01:45 | -45.09601 | 168.39980 | 22115 ft | 378 kts | 321° |
| 2026-05-09 01:45 | -45.07383 | 168.37952 | 22697 ft | 382 kts | 321° |
| 2026-05-09 01:46 | -45.05136 | 168.35898 | 23200 ft | 386 kts | 321° |
| 2026-05-09 01:46 | -45.02875 | 168.33833 | 23677 ft | 389 kts | 321° |
| 2026-05-09 01:46 | -45.00590 | 168.31748 | 24159 ft | 393 kts | 321° |
| 2026-05-09 01:46 | -45.00460 | 168.31630 | 24180 ft | 393 kts | 321° |
| 2026-05-09 01:47 | -44.98486 | 168.29831 | 24413 ft | 394 kts | 321° |
| 2026-05-09 01:47 | -44.96178 | 168.27730 | 24474 ft | 395 kts | 321° |
| 2026-05-09 01:47 | -44.93865 | 168.25626 | 24479 ft | 396 kts | 321° |
| 2026-05-09 01:47 | -44.91552 | 168.23524 | 24500 ft | 396 kts | 321° |
| 2026-05-09 01:48 | -44.89233 | 168.21419 | 24505 ft | 397 kts | 321° |
| 2026-05-09 01:48 | -44.86822 | 168.19482 | 24519 ft | 401 kts | 328° |
| 2026-05-09 01:48 | -44.84317 | 168.17834 | 24515 ft | 403 kts | 330° |
| 2026-05-09 01:48 | -44.81746 | 168.16229 | 24519 ft | 404 kts | 330° |
| 2026-05-09 01:49 | -44.79169 | 168.14634 | 24526 ft | 404 kts | 330° |
| 2026-05-09 01:49 | -44.76597 | 168.13041 | 24531 ft | 404 kts | 330° |
| 2026-05-09 01:49 | -44.74019 | 168.11443 | 24532 ft | 404 kts | 330° |
| 2026-05-09 01:49 | -44.71437 | 168.09840 | 24542 ft | 405 kts | 330° |
| 2026-05-09 01:50 | -44.68889 | 168.08259 | 24543 ft | 405 kts | 330° |
| 2026-05-09 01:50 | -44.66274 | 168.06636 | 24551 ft | 406 kts | 330° |
| 2026-05-09 01:50 | -44.63726 | 168.05058 | 24557 ft | 406 kts | 330° |
| 2026-05-09 01:50 | -44.61146 | 168.03462 | 24562 ft | 406 kts | 330° |
| 2026-05-09 01:51 | -44.58562 | 168.01864 | 24570 ft | 406 kts | 330° |
| 2026-05-09 01:51 | -44.55975 | 168.00265 | 24567 ft | 406 kts | 330° |
| 2026-05-09 01:51 | -44.53380 | 167.98665 | 24571 ft | 407 kts | 330° |
| 2026-05-09 01:51 | -44.50791 | 167.97069 | 24572 ft | 407 kts | 330° |
| 2026-05-09 01:52 | -44.48197 | 167.95470 | 24579 ft | 407 kts | 330° |
| 2026-05-09 01:52 | -44.45602 | 167.93874 | 24573 ft | 407 kts | 331° |
| 2026-05-09 01:52 | -44.43011 | 167.92280 | 24580 ft | 407 kts | 331° |
| 2026-05-09 01:52 | -44.40415 | 167.90686 | 24584 ft | 408 kts | 331° |
| 2026-05-09 01:53 | -44.37813 | 167.89089 | 24583 ft | 408 kts | 330° |
| 2026-05-09 01:53 | -44.35215 | 167.87496 | 24584 ft | 408 kts | 330° |
| 2026-05-09 01:53 | -44.32613 | 167.85902 | 24586 ft | 409 kts | 330° |
| 2026-05-09 01:53 | -44.30007 | 167.84308 | 24588 ft | 409 kts | 331° |
| 2026-05-09 01:54 | -44.27398 | 167.82714 | 24587 ft | 409 kts | 331° |
| 2026-05-09 01:54 | -44.24758 | 167.81210 | 24587 ft | 411 kts | 335° |
| 2026-05-09 01:54 | -44.22026 | 167.79951 | 24748 ft | 415 kts | 337° |
| 2026-05-09 01:54 | -44.19293 | 167.78772 | 25191 ft | 418 kts | 338° |
| 2026-05-09 01:55 | -44.16468 | 167.77565 | 25643 ft | 420 kts | 338° |
| 2026-05-09 01:55 | -44.13695 | 167.76381 | 26061 ft | 423 kts | 338° |
| 2026-05-09 01:55 | -44.10868 | 167.75173 | 26463 ft | 427 kts | 338° |
| 2026-05-09 01:55 | -44.08018 | 167.73955 | 26862 ft | 430 kts | 338° |
| 2026-05-09 01:56 | -44.05149 | 167.72730 | 27255 ft | 433 kts | 338° |
| 2026-05-09 01:56 | -44.02258 | 167.71496 | 27632 ft | 436 kts | 338° |
| 2026-05-09 01:56 | -43.99348 | 167.70255 | 27999 ft | 439 kts | 338° |
| 2026-05-09 01:56 | -43.96423 | 167.68995 | 28371 ft | 441 kts | 336° |
| 2026-05-09 01:57 | -43.93582 | 167.67390 | 28715 ft | 438 kts | 328° |
| 2026-05-09 01:57 | -43.90998 | 167.65177 | 29055 ft | 435 kts | 319° |
| 2026-05-09 01:57 | -43.88570 | 167.62653 | 29399 ft | 436 kts | 316° |
| 2026-05-09 01:57 | -43.86229 | 167.60046 | 29716 ft | 438 kts | 315° |
| 2026-05-09 01:58 | -43.83872 | 167.57341 | 29979 ft | 441 kts | 315° |
| 2026-05-09 01:58 | -43.81507 | 167.54609 | 30253 ft | 444 kts | 315° |
| 2026-05-09 01:58 | -43.79127 | 167.51872 | 30532 ft | 446 kts | 315° |
| 2026-05-09 01:58 | -43.76725 | 167.49132 | 30796 ft | 449 kts | 315° |
| 2026-05-09 01:59 | -43.74292 | 167.46379 | 31054 ft | 452 kts | 315° |
| 2026-05-09 01:59 | -43.71850 | 167.43634 | 31387 ft | 452 kts | 315° |
| 2026-05-09 01:59 | -43.69409 | 167.40902 | 31766 ft | 451 kts | 315° |
| 2026-05-09 01:59 | -43.66966 | 167.38175 | 32125 ft | 451 kts | 315° |
| 2026-05-09 02:00 | -43.64524 | 167.35451 | 32459 ft | 451 kts | 315° |
| 2026-05-09 02:00 | -43.62083 | 167.32730 | 32786 ft | 451 kts | 314° |
| 2026-05-09 02:00 | -43.59638 | 167.30006 | 33116 ft | 451 kts | 314° |
| 2026-05-09 02:00 | -43.57201 | 167.27293 | 33435 ft | 451 kts | 314° |
| 2026-05-09 02:01 | -43.54785 | 167.24605 | 33722 ft | 451 kts | 314° |
| 2026-05-09 02:01 | -43.52343 | 167.21890 | 33979 ft | 451 kts | 314° |
| 2026-05-09 02:01 | -43.49895 | 167.19172 | 34218 ft | 452 kts | 314° |
| 2026-05-09 02:01 | -43.47448 | 167.16458 | 34456 ft | 452 kts | 314° |
| 2026-05-09 02:02 | -43.44997 | 167.13742 | 34683 ft | 453 kts | 315° |
| 2026-05-09 02:02 | -43.42543 | 167.11026 | 34911 ft | 453 kts | 315° |
| 2026-05-09 02:02 | -43.40079 | 167.08303 | 35129 ft | 454 kts | 315° |
| 2026-05-09 02:02 | -43.37618 | 167.05585 | 35346 ft | 454 kts | 315° |
| 2026-05-09 02:03 | -43.35156 | 167.02870 | 35558 ft | 455 kts | 315° |
| 2026-05-09 02:03 | -43.32688 | 167.00151 | 35640 ft | 452 kts | 315° |
| 2026-05-09 02:03 | -43.27830 | 166.94817 | 35650 ft | 445 kts | 315° |
| 2026-05-09 02:04 | -43.23012 | 166.89508 | 35653 ft | 444 kts | 315° |
| 2026-05-09 02:04 | -43.18193 | 166.84185 | 35654 ft | 444 kts | 315° |
| 2026-05-09 02:05 | -43.13376 | 166.78876 | 35659 ft | 445 kts | 315° |
| 2026-05-09 02:05 | -43.08546 | 166.73569 | 35660 ft | 445 kts | 315° |
| 2026-05-09 02:06 | -43.03741 | 166.68303 | 35666 ft | 446 kts | 315° |
| 2026-05-09 02:07 | -42.96466 | 166.60351 | 35672 ft | 446 kts | 315° |
| 2026-05-09 02:07 | -42.91614 | 166.55062 | 35671 ft | 446 kts | 315° |
| 2026-05-09 02:08 | -42.86755 | 166.49774 | 35676 ft | 447 kts | 315° |
| 2026-05-09 02:08 | -42.81890 | 166.44492 | 35685 ft | 447 kts | 315° |
| 2026-05-09 02:09 | -42.77050 | 166.39248 | 35682 ft | 448 kts | 315° |
| 2026-05-09 02:09 | -42.72169 | 166.33970 | 35682 ft | 448 kts | 316° |
| 2026-05-09 02:10 | -42.67286 | 166.28701 | 35692 ft | 448 kts | 316° |
| 2026-05-09 02:10 | -42.62401 | 166.23441 | 35690 ft | 448 kts | 316° |
| 2026-05-09 02:11 | -42.57504 | 166.18178 | 35697 ft | 449 kts | 316° |
| 2026-05-09 02:11 | -42.52603 | 166.12922 | 35703 ft | 449 kts | 316° |
| 2026-05-09 02:12 | -42.47696 | 166.07670 | 35706 ft | 450 kts | 316° |
| 2026-05-09 02:12 | -42.42780 | 166.02420 | 35701 ft | 450 kts | 316° |
| 2026-05-09 02:13 | -42.37858 | 165.97174 | 35711 ft | 450 kts | 316° |
| 2026-05-09 02:13 | -42.32964 | 165.91968 | 35712 ft | 451 kts | 316° |
| 2026-05-09 02:14 | -42.28027 | 165.86728 | 35722 ft | 451 kts | 316° |
| 2026-05-09 02:14 | -42.23083 | 165.81490 | 35721 ft | 452 kts | 316° |
| 2026-05-09 02:15 | -42.18135 | 165.76259 | 35720 ft | 452 kts | 316° |
| 2026-05-09 02:15 | -42.13173 | 165.71024 | 35725 ft | 453 kts | 316° |
| 2026-05-09 02:16 | -42.08209 | 165.65799 | 35730 ft | 453 kts | 316° |
| 2026-05-09 02:16 | -42.03234 | 165.60572 | 35732 ft | 453 kts | 316° |
| 2026-05-09 02:17 | -41.98284 | 165.55382 | 35737 ft | 454 kts | 317° |
| 2026-05-09 02:17 | -41.93295 | 165.50161 | 35737 ft | 454 kts | 317° |
| 2026-05-09 02:18 | -41.88300 | 165.44945 | 35741 ft | 454 kts | 317° |
| 2026-05-09 02:18 | -41.83308 | 165.39743 | 35743 ft | 455 kts | 317° |
| 2026-05-09 02:19 | -41.78310 | 165.34544 | 35747 ft | 455 kts | 317° |
| 2026-05-09 02:19 | -41.73305 | 165.29349 | 35749 ft | 455 kts | 317° |
| 2026-05-09 02:20 | -41.68287 | 165.24152 | 35756 ft | 456 kts | 317° |
| 2026-05-09 02:20 | -41.63293 | 165.18990 | 35754 ft | 456 kts | 317° |
| 2026-05-09 02:21 | -41.58271 | 165.13809 | 35759 ft | 456 kts | 317° |
| 2026-05-09 02:21 | -41.53235 | 165.08624 | 35765 ft | 457 kts | 317° |
| 2026-05-09 02:22 | -41.48199 | 165.03450 | 35764 ft | 457 kts | 317° |
| 2026-05-09 02:22 | -41.43157 | 164.98279 | 35770 ft | 457 kts | 317° |
| 2026-05-09 02:23 | -41.38109 | 164.93113 | 35769 ft | 458 kts | 317° |
| 2026-05-09 02:23 | -41.33077 | 164.87974 | 35773 ft | 458 kts | 317° |
| 2026-05-09 02:24 | -41.28019 | 164.82818 | 35778 ft | 458 kts | 317° |
| 2026-05-09 02:24 | -41.22949 | 164.77662 | 35783 ft | 459 kts | 317° |
| 2026-05-09 02:25 | -41.17872 | 164.72507 | 35783 ft | 459 kts | 317° |
| 2026-05-09 02:25 | -41.12828 | 164.67397 | 35786 ft | 459 kts | 317° |
| 2026-05-09 02:26 | -41.08595 | 164.63115 | 35792 ft | 459 kts | 318° |
| 2026-05-09 02:26 | -41.03505 | 164.57978 | 35794 ft | 460 kts | 318° |
| 2026-05-09 02:27 | -40.98412 | 164.52847 | 35796 ft | 460 kts | 318° |
| 2026-05-09 02:27 | -40.93316 | 164.47722 | 35796 ft | 460 kts | 318° |
| 2026-05-09 02:28 | -40.88209 | 164.42598 | 35803 ft | 460 kts | 318° |
| 2026-05-09 02:28 | -40.83129 | 164.37511 | 35804 ft | 461 kts | 318° |
| 2026-05-09 02:29 | -40.78018 | 164.32402 | 35807 ft | 461 kts | 318° |
| 2026-05-09 02:29 | -40.72905 | 164.27302 | 35812 ft | 461 kts | 318° |
| 2026-05-09 02:30 | -40.67782 | 164.22202 | 35811 ft | 461 kts | 318° |
| 2026-05-09 02:30 | -40.62656 | 164.17108 | 35818 ft | 462 kts | 318° |
| 2026-05-09 02:31 | -40.57524 | 164.12019 | 35820 ft | 462 kts | 318° |
| 2026-05-09 02:31 | -40.52383 | 164.06932 | 35823 ft | 462 kts | 318° |
| 2026-05-09 02:32 | -40.47271 | 164.01883 | 35827 ft | 462 kts | 318° |
| 2026-05-09 02:32 | -40.42128 | 163.96812 | 35832 ft | 463 kts | 318° |
| 2026-05-09 02:33 | -40.36973 | 163.91741 | 35830 ft | 463 kts | 319° |
| 2026-05-09 02:33 | -40.31820 | 163.86680 | 35832 ft | 463 kts | 319° |
| 2026-05-09 02:34 | -40.26684 | 163.81647 | 35836 ft | 463 kts | 319° |
| 2026-05-09 02:34 | -40.21519 | 163.76595 | 35838 ft | 464 kts | 319° |
| 2026-05-09 02:35 | -40.16341 | 163.71541 | 35842 ft | 464 kts | 319° |
| 2026-05-09 02:35 | -40.11164 | 163.66497 | 35847 ft | 464 kts | 319° |
| 2026-05-09 02:36 | -40.05976 | 163.61452 | 35848 ft | 464 kts | 319° |
| 2026-05-09 02:36 | -40.00793 | 163.56421 | 35851 ft | 464 kts | 319° |
| 2026-05-09 02:37 | -39.95631 | 163.51422 | 35853 ft | 465 kts | 319° |
| 2026-05-09 02:37 | -39.90434 | 163.46397 | 35857 ft | 465 kts | 319° |
| 2026-05-09 02:38 | -39.85238 | 163.41383 | 35859 ft | 465 kts | 319° |
| 2026-05-09 02:38 | -39.80030 | 163.36367 | 35860 ft | 465 kts | 319° |
| 2026-05-09 02:39 | -39.74820 | 163.31360 | 35863 ft | 466 kts | 319° |
| 2026-05-09 02:39 | -39.69600 | 163.26352 | 35865 ft | 466 kts | 319° |
| 2026-05-09 02:40 | -39.64384 | 163.21358 | 35869 ft | 466 kts | 319° |
| 2026-05-09 02:40 | -39.59163 | 163.16368 | 35872 ft | 466 kts | 319° |
| 2026-05-09 02:41 | -39.53975 | 163.11419 | 35871 ft | 466 kts | 319° |
| 2026-05-09 02:41 | -39.48737 | 163.06432 | 35873 ft | 466 kts | 319° |
| 2026-05-09 02:42 | -39.43505 | 163.01461 | 35881 ft | 466 kts | 319° |
| 2026-05-09 02:42 | -39.38265 | 162.96495 | 35885 ft | 467 kts | 319° |
| 2026-05-09 02:43 | -39.33023 | 162.91540 | 35883 ft | 467 kts | 319° |
| 2026-05-09 02:43 | -39.27813 | 162.86625 | 35887 ft | 467 kts | 319° |
| 2026-05-09 02:44 | -39.22560 | 162.81679 | 35890 ft | 467 kts | 319° |
| 2026-05-09 02:44 | -39.17309 | 162.76743 | 35895 ft | 467 kts | 319° |
| 2026-05-09 02:45 | -39.12051 | 162.71810 | 35894 ft | 467 kts | 319° |
| 2026-05-09 02:45 | -39.06779 | 162.66873 | 35896 ft | 468 kts | 319° |
| 2026-05-09 02:46 | -39.01515 | 162.61954 | 35901 ft | 468 kts | 319° |
| 2026-05-09 02:46 | -38.96247 | 162.57040 | 35906 ft | 468 kts | 319° |
| 2026-05-09 02:47 | -38.91001 | 162.52156 | 35909 ft | 468 kts | 319° |
| 2026-05-09 02:47 | -38.85724 | 162.47251 | 35911 ft | 468 kts | 319° |
| 2026-05-09 02:48 | -38.80473 | 162.42380 | 35907 ft | 468 kts | 319° |
| 2026-05-09 02:48 | -38.75196 | 162.37494 | 35912 ft | 468 kts | 319° |
| 2026-05-09 02:49 | -38.69912 | 162.32611 | 35917 ft | 468 kts | 319° |
| 2026-05-09 02:49 | -38.64632 | 162.27740 | 35921 ft | 468 kts | 319° |
| 2026-05-09 02:50 | -38.59338 | 162.22866 | 35925 ft | 468 kts | 319° |
| 2026-05-09 02:50 | -38.54084 | 162.18037 | 35922 ft | 468 kts | 320° |
| 2026-05-09 02:51 | -38.48790 | 162.13181 | 35927 ft | 468 kts | 320° |
| 2026-05-09 02:51 | -38.43499 | 162.08336 | 35931 ft | 468 kts | 320° |
| 2026-05-09 02:52 | -38.38200 | 162.03493 | 35930 ft | 468 kts | 320° |
| 2026-05-09 02:52 | -38.32898 | 161.98656 | 35936 ft | 468 kts | 320° |
| 2026-05-09 02:53 | -38.27629 | 161.93857 | 35938 ft | 468 kts | 320° |
| 2026-05-09 02:53 | -38.22327 | 161.89039 | 35940 ft | 468 kts | 320° |
| 2026-05-09 02:54 | -38.17025 | 161.84228 | 35942 ft | 468 kts | 320° |
| 2026-05-09 02:54 | -38.11714 | 161.79419 | 35947 ft | 468 kts | 320° |
| 2026-05-09 02:55 | -38.06401 | 161.74615 | 35947 ft | 468 kts | 320° |
| 2026-05-09 02:55 | -38.01095 | 161.69828 | 35951 ft | 468 kts | 320° |
| 2026-05-09 02:56 | -37.95783 | 161.65043 | 35953 ft | 468 kts | 320° |
| 2026-05-09 02:56 | -37.90469 | 161.60266 | 35953 ft | 468 kts | 320° |
| 2026-05-09 02:57 | -37.85191 | 161.55529 | 35955 ft | 468 kts | 320° |
| 2026-05-09 02:57 | -37.79879 | 161.50770 | 35962 ft | 468 kts | 320° |
| 2026-05-09 02:58 | -37.74566 | 161.46019 | 35961 ft | 467 kts | 320° |
| 2026-05-09 02:58 | -37.69254 | 161.41277 | 35964 ft | 467 kts | 320° |
| 2026-05-09 02:59 | -37.63934 | 161.36537 | 35969 ft | 467 kts | 320° |
| 2026-05-09 02:59 | -37.58626 | 161.31816 | 35966 ft | 467 kts | 320° |
| 2026-05-09 03:00 | -37.53307 | 161.27093 | 35975 ft | 467 kts | 320° |
| 2026-05-09 03:00 | -37.48016 | 161.22403 | 35976 ft | 467 kts | 320° |
| 2026-05-09 03:01 | -37.42696 | 161.17696 | 35975 ft | 467 kts | 320° |
| 2026-05-09 03:01 | -37.37376 | 161.12999 | 35975 ft | 467 kts | 320° |
| 2026-05-09 03:02 | -37.32064 | 161.08315 | 35975 ft | 466 kts | 320° |
| 2026-05-09 03:02 | -37.26784 | 161.03669 | 35981 ft | 466 kts | 320° |
| 2026-05-09 03:03 | -37.21472 | 160.99002 | 35983 ft | 466 kts | 320° |
| 2026-05-09 03:03 | -37.16151 | 160.94335 | 35986 ft | 466 kts | 320° |
| 2026-05-09 03:04 | -37.10834 | 160.89680 | 35986 ft | 466 kts | 320° |
| 2026-05-09 03:04 | -37.05523 | 160.85039 | 35991 ft | 465 kts | 320° |
| 2026-05-09 03:05 | -37.00207 | 160.80402 | 35991 ft | 465 kts | 320° |
| 2026-05-09 03:05 | -36.94891 | 160.75771 | 35994 ft | 465 kts | 320° |
| 2026-05-09 03:06 | -36.89581 | 160.71156 | 35996 ft | 465 kts | 320° |
| 2026-05-09 03:06 | -36.84271 | 160.66547 | 36001 ft | 464 kts | 320° |
| 2026-05-09 03:07 | -36.78965 | 160.61950 | 36002 ft | 464 kts | 320° |
| 2026-05-09 03:07 | -36.73692 | 160.57389 | 36004 ft | 464 kts | 320° |
| 2026-05-09 03:08 | -36.68382 | 160.52805 | 36008 ft | 464 kts | 320° |
| 2026-05-09 03:08 | -36.63074 | 160.48229 | 36011 ft | 464 kts | 320° |
| 2026-05-09 03:09 | -36.57767 | 160.43662 | 36012 ft | 463 kts | 320° |
| 2026-05-09 03:09 | -36.52458 | 160.39103 | 36015 ft | 463 kts | 320° |
| 2026-05-09 03:10 | -36.47154 | 160.34554 | 36018 ft | 463 kts | 320° |
| 2026-05-09 03:10 | -36.41880 | 160.30038 | 36023 ft | 463 kts | 320° |
| 2026-05-09 03:11 | -36.36580 | 160.25509 | 36024 ft | 462 kts | 320° |
| 2026-05-09 03:11 | -36.31277 | 160.20984 | 36025 ft | 462 kts | 320° |
| 2026-05-09 03:12 | -36.25976 | 160.16469 | 36029 ft | 462 kts | 320° |
| 2026-05-09 03:12 | -36.20673 | 160.11959 | 36032 ft | 462 kts | 320° |
| 2026-05-09 03:13 | -36.13625 | 160.05978 | 36036 ft | 461 kts | 320° |
| 2026-05-09 03:13 | -36.08329 | 160.01491 | 36040 ft | 461 kts | 320° |
| 2026-05-09 03:14 | -36.03034 | 159.97013 | 36041 ft | 461 kts | 320° |
| 2026-05-09 03:14 | -35.97744 | 159.92547 | 36047 ft | 461 kts | 320° |
| 2026-05-09 03:15 | -35.92444 | 159.88080 | 36043 ft | 460 kts | 320° |
| 2026-05-09 03:15 | -35.87188 | 159.83657 | 36046 ft | 460 kts | 320° |
| 2026-05-09 03:16 | -35.81898 | 159.79213 | 36046 ft | 460 kts | 321° |
| 2026-05-09 03:16 | -35.76608 | 159.74776 | 36047 ft | 460 kts | 321° |
| 2026-05-09 03:17 | -35.71321 | 159.70349 | 36052 ft | 459 kts | 321° |
| 2026-05-09 03:17 | -35.66040 | 159.65934 | 36053 ft | 459 kts | 321° |
| 2026-05-09 03:18 | -35.60756 | 159.61524 | 36054 ft | 458 kts | 321° |
| 2026-05-09 03:18 | -35.55476 | 159.57125 | 36052 ft | 458 kts | 321° |
| 2026-05-09 03:19 | -35.50233 | 159.52762 | 36057 ft | 458 kts | 321° |
| 2026-05-09 03:19 | -35.44960 | 159.48383 | 36057 ft | 458 kts | 321° |
| 2026-05-09 03:20 | -35.39687 | 159.44010 | 36060 ft | 457 kts | 321° |
| 2026-05-09 03:20 | -35.34414 | 159.39645 | 36064 ft | 457 kts | 321° |
| 2026-05-09 03:21 | -35.29143 | 159.35288 | 36067 ft | 457 kts | 321° |
| 2026-05-09 03:21 | -35.23876 | 159.30941 | 36067 ft | 456 kts | 321° |
| 2026-05-09 03:22 | -35.18609 | 159.26601 | 36072 ft | 456 kts | 321° |
| 2026-05-09 03:22 | -35.13374 | 159.22295 | 36063 ft | 456 kts | 321° |
| 2026-05-09 03:23 | -35.08105 | 159.17967 | 36070 ft | 456 kts | 321° |
| 2026-05-09 03:23 | -35.02836 | 159.13648 | 36074 ft | 456 kts | 321° |
| 2026-05-09 03:24 | -34.97572 | 159.09339 | 36080 ft | 455 kts | 321° |
| 2026-05-09 03:24 | -34.92335 | 159.05059 | 36078 ft | 455 kts | 321° |
| 2026-05-09 03:25 | -34.87077 | 159.00769 | 36081 ft | 455 kts | 321° |
| 2026-05-09 03:25 | -34.81816 | 158.96483 | 36084 ft | 454 kts | 321° |
| 2026-05-09 03:26 | -34.76555 | 158.92204 | 36085 ft | 454 kts | 321° |
| 2026-05-09 03:26 | -34.71303 | 158.87939 | 36088 ft | 454 kts | 321° |
| 2026-05-09 03:27 | -34.66085 | 158.83708 | 36089 ft | 453 kts | 321° |
| 2026-05-09 03:27 | -34.60833 | 158.79456 | 36092 ft | 453 kts | 321° |
| 2026-05-09 03:28 | -34.55578 | 158.75208 | 36095 ft | 452 kts | 322° |
| 2026-05-09 03:28 | -34.50339 | 158.70979 | 36094 ft | 452 kts | 322° |
| 2026-05-09 03:29 | -34.45132 | 158.66783 | 36096 ft | 452 kts | 322° |
| 2026-05-09 03:29 | -34.39902 | 158.62575 | 36098 ft | 451 kts | 322° |
| 2026-05-09 03:30 | -34.34664 | 158.58367 | 36100 ft | 450 kts | 322° |
| 2026-05-09 03:30 | -34.29440 | 158.54176 | 36103 ft | 450 kts | 322° |
| 2026-05-09 03:31 | -34.24227 | 158.50000 | 36103 ft | 449 kts | 322° |
| 2026-05-09 03:31 | -34.19021 | 158.45836 | 36108 ft | 448 kts | 322° |
| 2026-05-09 03:32 | -34.13853 | 158.41710 | 36107 ft | 448 kts | 322° |
| 2026-05-09 03:32 | -34.08661 | 158.37569 | 36106 ft | 447 kts | 322° |
| 2026-05-09 03:33 | -34.03471 | 158.33437 | 36109 ft | 446 kts | 322° |
| 2026-05-09 03:33 | -33.98286 | 158.29315 | 36108 ft | 446 kts | 322° |
| 2026-05-09 03:34 | -33.93109 | 158.25206 | 36112 ft | 445 kts | 322° |
| 2026-05-09 03:34 | -33.87939 | 158.21107 | 36114 ft | 444 kts | 322° |
| 2026-05-09 03:35 | -33.82775 | 158.17020 | 36119 ft | 444 kts | 322° |
| 2026-05-09 03:35 | -33.77618 | 158.12944 | 36116 ft | 443 kts | 322° |
| 2026-05-09 03:36 | -33.72467 | 158.08879 | 36119 ft | 443 kts | 322° |
| 2026-05-09 03:36 | -33.67354 | 158.04850 | 36121 ft | 442 kts | 322° |
| 2026-05-09 03:37 | -33.62210 | 158.00801 | 36122 ft | 441 kts | 322° |
| 2026-05-09 03:37 | -33.57077 | 157.96769 | 36126 ft | 441 kts | 322° |
| 2026-05-09 03:38 | -33.51947 | 157.92743 | 36125 ft | 440 kts | 322° |
| 2026-05-09 03:38 | -33.46820 | 157.88726 | 36125 ft | 440 kts | 322° |
| 2026-05-09 03:39 | -33.41705 | 157.84724 | 36125 ft | 439 kts | 322° |
| 2026-05-09 03:39 | -33.36624 | 157.80755 | 36132 ft | 438 kts | 322° |
| 2026-05-09 03:40 | -33.31521 | 157.76773 | 36130 ft | 438 kts | 322° |
| 2026-05-09 03:40 | -33.26414 | 157.72794 | 36134 ft | 438 kts | 322° |
| 2026-05-09 03:41 | -33.21308 | 157.68822 | 36135 ft | 437 kts | 322° |
| 2026-05-09 03:41 | -33.16203 | 157.64856 | 36134 ft | 437 kts | 322° |
| 2026-05-09 03:42 | -33.11102 | 157.60899 | 36131 ft | 437 kts | 322° |
| 2026-05-09 03:42 | -33.05998 | 157.56945 | 36133 ft | 437 kts | 322° |
| 2026-05-09 03:43 | -33.00927 | 157.53023 | 36135 ft | 437 kts | 323° |
| 2026-05-09 03:43 | -32.95792 | 157.49056 | 36137 ft | 437 kts | 323° |
| 2026-05-09 03:44 | -32.90717 | 157.45141 | 36137 ft | 437 kts | 323° |
| 2026-05-09 03:44 | -32.85610 | 157.41207 | 36136 ft | 437 kts | 323° |
| 2026-05-09 03:45 | -32.80498 | 157.37274 | 36139 ft | 437 kts | 323° |
| 2026-05-09 03:45 | -32.75383 | 157.33345 | 36142 ft | 437 kts | 323° |
| 2026-05-09 03:46 | -32.70274 | 157.29425 | 36143 ft | 437 kts | 323° |
| 2026-05-09 03:46 | -32.65170 | 157.25515 | 36145 ft | 436 kts | 323° |
| 2026-05-09 03:47 | -32.60100 | 157.21637 | 36148 ft | 435 kts | 323° |
| 2026-05-09 03:47 | -32.55009 | 157.17748 | 36147 ft | 434 kts | 323° |
| 2026-05-09 03:48 | -32.49935 | 157.13877 | 36149 ft | 433 kts | 323° |
| 2026-05-09 03:48 | -32.44871 | 157.10019 | 36153 ft | 432 kts | 323° |
| 2026-05-09 03:49 | -32.39824 | 157.06179 | 36153 ft | 431 kts | 323° |
| 2026-05-09 03:49 | -32.34780 | 157.02346 | 36148 ft | 429 kts | 323° |
| 2026-05-09 03:50 | -32.29794 | 156.98563 | 36148 ft | 428 kts | 323° |
| 2026-05-09 03:50 | -32.24792 | 156.94773 | 36148 ft | 426 kts | 323° |
| 2026-05-09 03:51 | -32.19802 | 156.90996 | 36150 ft | 425 kts | 323° |
| 2026-05-09 03:51 | -32.14825 | 156.87234 | 36157 ft | 424 kts | 323° |
| 2026-05-09 03:52 | -32.09862 | 156.83488 | 36155 ft | 423 kts | 323° |
| 2026-05-09 03:52 | -32.04908 | 156.79753 | 36156 ft | 422 kts | 323° |
| 2026-05-09 03:53 | -31.99963 | 156.76031 | 36158 ft | 421 kts | 323° |
| 2026-05-09 03:53 | -31.95050 | 156.72337 | 36158 ft | 421 kts | 323° |
| 2026-05-09 03:54 | -31.90116 | 156.68632 | 36158 ft | 420 kts | 323° |
| 2026-05-09 03:54 | -31.85189 | 156.64937 | 36156 ft | 420 kts | 323° |
| 2026-05-09 03:55 | -31.80259 | 156.61245 | 36162 ft | 419 kts | 323° |
| 2026-05-09 03:55 | -31.75354 | 156.57578 | 36162 ft | 413 kts | 322° |
| 2026-05-09 03:56 | -31.70540 | 156.53985 | 36168 ft | 408 kts | 322° |
| 2026-05-09 03:56 | -31.65778 | 156.50430 | 36167 ft | 408 kts | 322° |
| 2026-05-09 03:57 | -31.60993 | 156.46861 | 36165 ft | 408 kts | 322° |
| 2026-05-09 03:57 | -31.56203 | 156.43294 | 36171 ft | 408 kts | 322° |
| 2026-05-09 03:58 | -31.51419 | 156.39737 | 36166 ft | 407 kts | 322° |
| 2026-05-09 03:58 | -31.46627 | 156.36179 | 36166 ft | 407 kts | 322° |
| 2026-05-09 03:59 | -31.41838 | 156.32628 | 36167 ft | 407 kts | 322° |
| 2026-05-09 03:59 | -31.37049 | 156.29081 | 36171 ft | 407 kts | 322° |
| 2026-05-09 04:00 | -31.32271 | 156.25548 | 36163 ft | 405 kts | 322° |
| 2026-05-09 04:00 | -31.27504 | 156.22026 | 36174 ft | 404 kts | 322° |
| 2026-05-09 04:01 | -31.22777 | 156.18537 | 36177 ft | 404 kts | 322° |
| 2026-05-09 04:01 | -31.18036 | 156.15043 | 36176 ft | 402 kts | 322° |
| 2026-05-09 04:02 | -31.13307 | 156.11561 | 36180 ft | 401 kts | 322° |
| 2026-05-09 04:02 | -31.09392 | 156.08683 | 36179 ft | 399 kts | 322° |
| 2026-05-09 04:03 | -31.04693 | 156.05231 | 36183 ft | 398 kts | 322° |
| 2026-05-09 04:03 | -31.00015 | 156.01799 | 36179 ft | 396 kts | 322° |
| 2026-05-09 04:04 | -30.95351 | 155.98381 | 36185 ft | 395 kts | 321° |
| 2026-05-09 04:04 | -30.90700 | 155.94976 | 36180 ft | 394 kts | 321° |
| 2026-05-09 04:05 | -30.86090 | 155.91605 | 36184 ft | 393 kts | 321° |
| 2026-05-09 04:05 | -30.81465 | 155.88226 | 36183 ft | 391 kts | 321° |
| 2026-05-09 04:06 | -30.76867 | 155.84862 | 36186 ft | 390 kts | 321° |
| 2026-05-09 04:06 | -30.72269 | 155.81502 | 36182 ft | 389 kts | 321° |
| 2026-05-09 04:07 | -30.67686 | 155.78158 | 36185 ft | 388 kts | 321° |
| 2026-05-09 04:07 | -30.63114 | 155.74825 | 36184 ft | 387 kts | 321° |
| 2026-05-09 04:08 | -30.58558 | 155.71507 | 36185 ft | 386 kts | 321° |
| 2026-05-09 04:08 | -30.54039 | 155.68221 | 36186 ft | 385 kts | 320° |
| 2026-05-09 04:09 | -30.49504 | 155.64926 | 36188 ft | 384 kts | 320° |
| 2026-05-09 04:09 | -30.44984 | 155.61646 | 36188 ft | 383 kts | 320° |
| 2026-05-09 04:10 | -30.40473 | 155.58376 | 36189 ft | 382 kts | 320° |
| 2026-05-09 04:10 | -30.35967 | 155.55113 | 36187 ft | 381 kts | 320° |
| 2026-05-09 04:11 | -30.31478 | 155.51866 | 36189 ft | 380 kts | 320° |
| 2026-05-09 04:11 | -30.27023 | 155.48648 | 36187 ft | 379 kts | 320° |
| 2026-05-09 04:12 | -30.22559 | 155.45426 | 36193 ft | 378 kts | 320° |
| 2026-05-09 04:12 | -30.18102 | 155.42213 | 36192 ft | 377 kts | 320° |
| 2026-05-09 04:13 | -30.13661 | 155.39014 | 36195 ft | 376 kts | 319° |
| 2026-05-09 04:13 | -30.09229 | 155.35827 | 36192 ft | 374 kts | 319° |
| 2026-05-09 04:14 | -30.04819 | 155.32657 | 36197 ft | 373 kts | 319° |
| 2026-05-09 04:14 | -30.00419 | 155.29498 | 36197 ft | 372 kts | 319° |
| 2026-05-09 04:15 | -29.96031 | 155.26351 | 36199 ft | 371 kts | 319° |
| 2026-05-09 04:15 | -29.91652 | 155.23214 | 36200 ft | 370 kts | 319° |
| 2026-05-09 04:16 | -29.87290 | 155.20092 | 36203 ft | 369 kts | 319° |
| 2026-05-09 04:16 | -29.82962 | 155.16998 | 36210 ft | 368 kts | 319° |
| 2026-05-09 04:17 | -29.78613 | 155.13893 | 36201 ft | 367 kts | 319° |
| 2026-05-09 04:17 | -29.74276 | 155.10799 | 36194 ft | 366 kts | 319° |
| 2026-05-09 04:18 | -29.69901 | 155.07674 | 36203 ft | 376 kts | 319° |
| 2026-05-09 04:18 | -29.65410 | 155.04476 | 36197 ft | 380 kts | 319° |
| 2026-05-09 04:19 | -29.60915 | 155.01284 | 36208 ft | 379 kts | 319° |
| 2026-05-09 04:19 | -29.56465 | 154.98126 | 35955 ft | 375 kts | 319° |
| 2026-05-09 04:20 | -29.54274 | 154.96579 | 35866 ft | 363 kts | 319° |
| 2026-05-09 04:20 | -29.52155 | 154.95084 | 35643 ft | 355 kts | 319° |
| 2026-05-09 04:20 | -29.50045 | 154.93582 | 34985 ft | 359 kts | 319° |
| 2026-05-09 04:20 | -29.47908 | 154.92058 | 34379 ft | 363 kts | 319° |
| 2026-05-09 04:21 | -29.45750 | 154.90525 | 33725 ft | 366 kts | 320° |
| 2026-05-09 04:21 | -29.43596 | 154.89000 | 33318 ft | 362 kts | 320° |
| 2026-05-09 04:21 | -29.39354 | 154.86004 | 32508 ft | 355 kts | 320° |
| 2026-05-09 04:22 | -29.37258 | 154.84522 | 32098 ft | 352 kts | 321° |
| 2026-05-09 04:22 | -29.35185 | 154.83057 | 31705 ft | 349 kts | 321° |
| 2026-05-09 04:22 | -29.33121 | 154.81599 | 31305 ft | 347 kts | 321° |
| 2026-05-09 04:22 | -29.31071 | 154.80151 | 30910 ft | 345 kts | 321° |
| 2026-05-09 04:23 | -29.29026 | 154.78707 | 30512 ft | 345 kts | 322° |
| 2026-05-09 04:23 | -29.27010 | 154.77284 | 30095 ft | 344 kts | 322° |
| 2026-05-09 04:23 | -29.24976 | 154.75851 | 29673 ft | 342 kts | 322° |
| 2026-05-09 04:23 | -29.22950 | 154.74424 | 29289 ft | 341 kts | 322° |
| 2026-05-09 04:24 | -29.20936 | 154.73006 | 28902 ft | 339 kts | 322° |
| 2026-05-09 04:24 | -29.18930 | 154.71593 | 28515 ft | 338 kts | 322° |
| 2026-05-09 04:24 | -29.16929 | 154.70185 | 28116 ft | 336 kts | 322° |
| 2026-05-09 04:24 | -29.14941 | 154.68787 | 27730 ft | 335 kts | 322° |
| 2026-05-09 04:25 | -29.12962 | 154.67396 | 27346 ft | 333 kts | 322° |
| 2026-05-09 04:25 | -29.10991 | 154.66011 | 26964 ft | 332 kts | 322° |
| 2026-05-09 04:25 | -29.09029 | 154.64632 | 26584 ft | 330 kts | 322° |
| 2026-05-09 04:25 | -29.07072 | 154.63258 | 26218 ft | 329 kts | 322° |
| 2026-05-09 04:26 | -29.05125 | 154.61892 | 25848 ft | 328 kts | 322° |
| 2026-05-09 04:26 | -29.03181 | 154.60529 | 25474 ft | 328 kts | 322° |
| 2026-05-09 04:26 | -29.01263 | 154.59183 | 25113 ft | 327 kts | 322° |
| 2026-05-09 04:26 | -28.99326 | 154.57825 | 24742 ft | 326 kts | 322° |
| 2026-05-09 04:27 | -28.97395 | 154.56472 | 24382 ft | 326 kts | 323° |
| 2026-05-09 04:27 | -28.95460 | 154.55117 | 24016 ft | 325 kts | 323° |
| 2026-05-09 04:27 | -28.93534 | 154.53770 | 23629 ft | 324 kts | 323° |
| 2026-05-09 04:27 | -28.91616 | 154.52428 | 23224 ft | 323 kts | 323° |
| 2026-05-09 04:28 | -28.89698 | 154.51087 | 22857 ft | 322 kts | 323° |
| 2026-05-09 04:28 | -28.87792 | 154.49755 | 22510 ft | 321 kts | 323° |
| 2026-05-09 04:28 | -28.85889 | 154.48426 | 22158 ft | 320 kts | 323° |
| 2026-05-09 04:28 | -28.83996 | 154.47104 | 21806 ft | 318 kts | 323° |
| 2026-05-09 04:29 | -28.82105 | 154.45784 | 21441 ft | 318 kts | 323° |
| 2026-05-09 04:29 | -28.80247 | 154.44487 | 21097 ft | 317 kts | 323° |
| 2026-05-09 04:29 | -28.78368 | 154.43177 | 20746 ft | 316 kts | 323° |
| 2026-05-09 04:29 | -28.76494 | 154.41870 | 20384 ft | 315 kts | 323° |
| 2026-05-09 04:30 | -28.74628 | 154.40570 | 20025 ft | 314 kts | 324° |
| 2026-05-09 04:30 | -28.72766 | 154.39272 | 19673 ft | 313 kts | 324° |
| 2026-05-09 04:30 | -28.70908 | 154.37979 | 19316 ft | 312 kts | 324° |
| 2026-05-09 04:30 | -28.69054 | 154.36689 | 18961 ft | 312 kts | 324° |
| 2026-05-09 04:31 | -28.67204 | 154.35402 | 18612 ft | 311 kts | 324° |
| 2026-05-09 04:31 | -28.65358 | 154.34118 | 18241 ft | 310 kts | 324° |
| 2026-05-09 04:31 | -28.63520 | 154.32840 | 17887 ft | 309 kts | 324° |
| 2026-05-09 04:31 | -28.61690 | 154.31569 | 17535 ft | 307 kts | 324° |
| 2026-05-09 04:32 | -28.59869 | 154.30305 | 17195 ft | 306 kts | 324° |
| 2026-05-09 04:32 | -28.58058 | 154.29048 | 16856 ft | 304 kts | 324° |
| 2026-05-09 04:32 | -28.56281 | 154.27815 | 16517 ft | 302 kts | 324° |
| 2026-05-09 04:32 | -28.54491 | 154.26573 | 16170 ft | 300 kts | 324° |
| 2026-05-09 04:33 | -28.52708 | 154.25337 | 15813 ft | 299 kts | 324° |
| 2026-05-09 04:33 | -28.50935 | 154.24108 | 15485 ft | 297 kts | 324° |
| 2026-05-09 04:33 | -28.49177 | 154.22890 | 15143 ft | 295 kts | 324° |
| 2026-05-09 04:33 | -28.47426 | 154.21678 | 14796 ft | 294 kts | 324° |
| 2026-05-09 04:34 | -28.45680 | 154.20459 | 14425 ft | 293 kts | 323° |
| 2026-05-09 04:34 | -28.44134 | 154.19002 | 14103 ft | 285 kts | 308° |
| 2026-05-09 04:34 | -28.42993 | 154.17187 | 13783 ft | 281 kts | 298° |
| 2026-05-09 04:34 | -28.42012 | 154.15275 | 13466 ft | 280 kts | 297° |
| 2026-05-09 04:35 | -28.41059 | 154.13348 | 13151 ft | 279 kts | 296° |
| 2026-05-09 04:35 | -28.40109 | 154.11428 | 12838 ft | 278 kts | 296° |
| 2026-05-09 04:35 | -28.39172 | 154.09544 | 12518 ft | 277 kts | 296° |
| 2026-05-09 04:35 | -28.38224 | 154.07644 | 12181 ft | 276 kts | 296° |
| 2026-05-09 04:36 | -28.37278 | 154.05753 | 11855 ft | 275 kts | 296° |
| 2026-05-09 04:36 | -28.36333 | 154.03869 | 11527 ft | 274 kts | 296° |
| 2026-05-09 04:36 | -28.35394 | 154.01996 | 11190 ft | 273 kts | 296° |
| 2026-05-09 04:36 | -28.34453 | 154.00122 | 10907 ft | 274 kts | 296° |
| 2026-05-09 04:37 | -28.33510 | 153.98246 | 10533 ft | 275 kts | 296° |
| 2026-05-09 04:37 | -28.32558 | 153.96350 | 10133 ft | 277 kts | 296° |
| 2026-05-09 04:37 | -28.31605 | 153.94456 | 9769 ft | 275 kts | 296° |
| 2026-05-09 04:37 | -28.30663 | 153.92586 | 9461 ft | 271 kts | 296° |
| 2026-05-09 04:38 | -28.29731 | 153.90737 | 9135 ft | 268 kts | 296° |
| 2026-05-09 04:38 | -28.28811 | 153.88911 | 8838 ft | 265 kts | 296° |
| 2026-05-09 04:38 | -28.27899 | 153.87103 | 8531 ft | 263 kts | 296° |
| 2026-05-09 04:38 | -28.26994 | 153.85307 | 8212 ft | 261 kts | 296° |
| 2026-05-09 04:39 | -28.26096 | 153.83527 | 7908 ft | 259 kts | 296° |
| 2026-05-09 04:39 | -28.25202 | 153.81754 | 7605 ft | 258 kts | 296° |
| 2026-05-09 04:39 | -28.24321 | 153.80009 | 7303 ft | 258 kts | 296° |
| 2026-05-09 04:39 | -28.23428 | 153.78240 | 6999 ft | 258 kts | 296° |
| 2026-05-09 04:40 | -28.22537 | 153.76477 | 6683 ft | 257 kts | 296° |
| 2026-05-09 04:40 | -28.21647 | 153.74716 | 6356 ft | 257 kts | 296° |
| 2026-05-09 04:40 | -28.20758 | 153.72958 | 6032 ft | 256 kts | 296° |
| 2026-05-09 04:40 | -28.19873 | 153.71208 | 5728 ft | 255 kts | 296° |
| 2026-05-09 04:41 | -28.18994 | 153.69473 | 5484 ft | 250 kts | 297° |
| 2026-05-09 04:41 | -28.18147 | 153.67804 | 5363 ft | 238 kts | 297° |
| 2026-05-09 04:41 | -28.17341 | 153.66216 | 5267 ft | 226 kts | 297° |
| 2026-05-09 04:41 | -28.16576 | 153.64710 | 5121 ft | 216 kts | 296° |
| 2026-05-09 04:42 | -28.15825 | 153.63231 | 4823 ft | 217 kts | 297° |
| 2026-05-09 04:42 | -28.14901 | 153.61878 | 4538 ft | 218 kts | 313° |
| 2026-05-09 04:42 | -28.13779 | 153.60755 | 4308 ft | 217 kts | 318° |
| 2026-05-09 04:42 | -28.12592 | 153.59669 | 4042 ft | 215 kts | 319° |
| 2026-05-09 04:43 | -28.11448 | 153.58636 | 3847 ft | 208 kts | 319° |
| 2026-05-09 04:43 | -28.10355 | 153.57649 | 3735 ft | 195 kts | 319° |
| 2026-05-09 04:43 | -28.09318 | 153.56709 | 3521 ft | 189 kts | 318° |
| 2026-05-09 04:43 | -28.08418 | 153.55692 | 3264 ft | 178 kts | 306° |
| 2026-05-09 04:44 | -28.07785 | 153.54534 | 2934 ft | 167 kts | 294° |
| 2026-05-09 04:44 | -28.07390 | 153.53358 | 2662 ft | 153 kts | 284° |
| 2026-05-09 04:44 | -28.07201 | 153.52224 | 2422 ft | 140 kts | 274° |
| 2026-05-09 04:44 | -28.07187 | 153.51154 | 2248 ft | 134 kts | 265° |
| 2026-05-09 04:45 | -28.07320 | 153.50110 | 2047 ft | 135 kts | 256° |
| 2026-05-09 04:45 | -28.07656 | 153.49119 | 1845 ft | 136 kts | 242° |
| 2026-05-09 04:45 | -28.08233 | 153.48271 | 1624 ft | 137 kts | 224° |
| 2026-05-09 04:45 | -28.08990 | 153.47663 | 1415 ft | 130 kts | 207° |
| 2026-05-09 04:46 | -28.09826 | 153.47340 | 1248 ft | 126 kts | 192° |
| 2026-05-09 04:46 | -28.10699 | 153.47282 | 1113 ft | 126 kts | 176° |
| 2026-05-09 04:46 | -28.11551 | 153.47493 | 934 ft | 125 kts | 160° |
| 2026-05-09 04:46 | -28.12325 | 153.47928 | 829 ft | 123 kts | 153° |
| 2026-05-09 04:47 | -28.13067 | 153.48405 | 681 ft | 122 kts | 152° |
| 2026-05-09 04:47 | -28.13798 | 153.48873 | 499 ft | 121 kts | 152° |
| 2026-05-09 04:47 | -28.14547 | 153.49364 | 349 ft | 126 kts | 151° |
| 2026-05-09 04:47 | -28.15285 | 153.49845 | 175 ft | 123 kts | 152° |
| 2026-05-09 04:48 | -28.16025 | 153.50316 | 44 ft | 119 kts | 154° |
| 2026-05-09 04:48 | -28.16647 | 153.50702 | 31 ft | 78 kts | 150° |
| 2026-05-09 04:48 | -28.16919 | 153.50879 | 31 ft | 18 kts | 140° |
| 2026-05-09 04:48 | -28.16927 | 153.50990 | 29 ft | 15 kts | 60° |
| 2026-05-09 04:49 | -28.16909 | 153.51026 | 29 ft | 0 kts | 60° |
| 2026-05-09 04:50 | -28.16906 | 153.51034 | 29 ft | 2 kts | 60° |
| 2026-05-09 04:50 | -28.16895 | 153.51055 | 29 ft | 6 kts | 60° |
| 2026-05-09 04:50 | -28.16871 | 153.51102 | 29 ft | 6 kts | 60° |
| 2026-05-09 04:51 | -28.16850 | 153.51146 | 29 ft | 7 kts | 60° |
| 2026-05-09 04:51 | -28.16831 | 153.51175 | 29 ft | 7 kts | 49° |
| 2026-05-09 04:51 | -28.16796 | 153.51237 | 29 ft | 5 kts | 61° |
| 2026-05-09 04:51 | -28.16790 | 153.51249 | 29 ft | 1 kts | 61° |
| 2026-05-09 04:52 | -28.16790 | 153.51251 | 29 ft | 0 kts | 61° |
| 2026-05-09 04:52 | -28.16789 | 153.51251 | 29 ft | 0 kts | 61° |